createdAt,value
2022-12-03T00:01:20.572Z,12.50
2022-12-03T00:04:23.624Z,12.25
2022-12-03T00:07:26.205Z,12.80
2022-12-03T00:10:29.213Z,13.68
2022-12-03T00:13:31.724Z,13.65
2022-12-03T00:16:34.589Z,12.77
2022-12-03T00:19:37.047Z,14.05
2022-12-03T00:22:39.883Z,12.93
2022-12-03T00:25:42.446Z,12.13
2022-12-03T00:28:46.074Z,14.32
2022-12-03T00:31:49.133Z,14.00
2022-12-03T00:34:52.484Z,13.10
2022-12-03T00:37:56.015Z,14.17
2022-12-03T00:40:58.953Z,12.35
2022-12-03T00:44:01.556Z,13.02
2022-12-03T00:47:04.675Z,12.50
2022-12-03T00:50:08.364Z,14.60
2022-12-03T00:53:11.190Z,12.60
2022-12-03T00:56:13.796Z,12.35
2022-12-03T00:59:16.697Z,12.95
2022-12-03T01:02:19.285Z,11.48
2022-12-03T01:05:22.284Z,12.65
2022-12-03T01:08:24.788Z,13.20
2022-12-03T01:11:40.768Z,13.50
2022-12-03T01:14:44.350Z,14.48
2022-12-03T01:17:47.199Z,12.57
2022-12-03T01:20:49.739Z,12.98
2022-12-03T01:23:52.702Z,14.87
2022-12-03T01:26:56.579Z,13.57
2022-12-03T01:29:59.548Z,12.82
2022-12-03T01:33:02.097Z,13.27
2022-12-03T01:36:05.105Z,13.80
2022-12-03T01:39:07.984Z,12.87
2022-12-03T01:42:25.537Z,14.32
2022-12-03T01:45:29.463Z,13.70
2022-12-03T01:48:35.081Z,13.23
2022-12-03T01:51:37.652Z,13.35
2022-12-03T01:54:43.209Z,12.07
2022-12-03T01:57:48.072Z,14.27
2022-12-03T02:00:51.181Z,14.82
2022-12-03T02:03:54.091Z,13.85
2022-12-03T02:06:56.940Z,12.43
2022-12-03T02:10:02.320Z,13.57
2022-12-03T02:13:08.127Z,13.32
2022-12-03T02:16:10.933Z,14.25
2022-12-03T02:19:27.624Z,13.18
2022-12-03T02:22:51.908Z,13.93
2022-12-03T02:25:54.796Z,13.47
2022-12-03T02:28:58.023Z,13.50
2022-12-03T02:32:01.027Z,14.70
2022-12-03T02:35:03.648Z,12.95
2022-12-03T02:38:15.322Z,13.73
2022-12-03T02:41:37.544Z,13.90
2022-12-03T02:44:40.539Z,14.40
2022-12-03T02:47:45.679Z,13.27
2022-12-03T02:50:51.039Z,13.68
2022-12-03T02:53:54.395Z,12.70
2022-12-03T02:56:57.253Z,13.93
2022-12-03T02:59:59.992Z,13.30
2022-12-03T03:03:04.593Z,13.00
2022-12-03T03:06:08.419Z,14.30
2022-12-03T03:09:11.357Z,14.60
2022-12-03T03:12:13.943Z,13.33
2022-12-03T03:15:16.898Z,14.73
2022-12-03T03:18:19.614Z,14.10
2022-12-03T03:21:22.524Z,14.45
2022-12-03T03:24:25.764Z,14.20
2022-12-03T03:27:28.952Z,14.27
2022-12-03T03:30:32.003Z,14.52
2022-12-03T03:33:35.487Z,15.10
2022-12-03T03:36:38.113Z,12.15
2022-12-03T03:39:40.900Z,13.00
2022-12-03T03:42:43.566Z,14.13
2022-12-03T03:45:47.011Z,14.23
2022-12-03T03:48:50.143Z,12.23
2022-12-03T03:51:53.096Z,14.77
2022-12-03T03:54:55.834Z,13.98
2022-12-03T03:57:59.071Z,14.67
2022-12-03T04:01:02.101Z,13.23
2022-12-03T04:04:07.061Z,13.30
2022-12-03T04:07:09.998Z,12.43
2022-12-03T04:10:32.462Z,14.77
2022-12-03T04:13:34.954Z,12.83
2022-12-03T04:16:37.823Z,13.35
2022-12-03T04:19:40.364Z,13.20
2022-12-03T04:22:43.319Z,12.68
2022-12-03T04:26:04.349Z,13.25
2022-12-03T04:29:07.155Z,12.50
2022-12-03T04:32:28.039Z,13.15
2022-12-03T04:35:42.999Z,12.60
2022-12-03T04:38:45.530Z,13.80
2022-12-03T04:41:48.316Z,13.45
2022-12-03T04:44:51.353Z,14.77
2022-12-03T04:47:54.266Z,12.57
2022-12-03T04:50:56.752Z,14.05
2022-12-03T04:53:59.534Z,14.95
2022-12-03T04:57:02.889Z,12.80
2022-12-03T05:00:06.458Z,13.10
2022-12-03T05:03:09.017Z,14.20
2022-12-03T05:06:11.921Z,14.70
2022-12-03T05:09:14.698Z,13.02
2022-12-03T05:12:17.611Z,14.00
2022-12-03T05:15:20.097Z,13.17
2022-12-03T05:18:23.063Z,13.93
2022-12-03T05:21:25.594Z,13.75
2022-12-03T05:24:28.494Z,14.77
2022-12-03T05:27:31.191Z,13.50
2022-12-03T05:30:34.163Z,14.10
2022-12-03T05:33:40.991Z,14.32
2022-12-03T05:36:46.970Z,14.65
2022-12-03T05:39:49.955Z,10.15
2022-12-03T05:42:57.127Z,12.68
2022-12-03T05:45:59.909Z,12.63
2022-12-03T05:49:05.932Z,13.05
2022-12-03T05:52:08.539Z,12.82
2022-12-03T05:55:12.003Z,14.38
2022-12-03T05:58:14.619Z,12.80
2022-12-03T06:01:17.501Z,12.90
2022-12-03T06:04:20.589Z,12.98
2022-12-03T06:07:23.162Z,12.98
2022-12-03T06:10:26.480Z,13.25
2022-12-03T06:13:29.039Z,12.37
2022-12-03T06:16:31.958Z,13.43
2022-12-03T06:19:34.793Z,13.52
2022-12-03T06:22:37.577Z,12.98
2022-12-03T06:25:40.075Z,13.27
2022-12-03T06:28:47.704Z,12.55
2022-12-03T06:31:50.279Z,12.67
2022-12-03T06:34:53.378Z,12.80
2022-12-03T06:37:56.120Z,12.77
2022-12-03T06:40:59.005Z,12.52
2022-12-03T06:44:01.584Z,12.52
2022-12-03T06:47:04.407Z,9.97
2022-12-03T06:50:08.174Z,13.35
2022-12-03T06:53:11.164Z,13.05
2022-12-03T06:56:13.669Z,11.20
2022-12-03T06:59:16.451Z,13.25
2022-12-03T07:02:20.198Z,11.87
2022-12-03T07:05:22.994Z,11.68
2022-12-03T07:08:25.669Z,12.00
2022-12-03T07:11:31.043Z,13.30
2022-12-03T07:14:33.611Z,13.20
2022-12-03T07:17:36.402Z,11.53
2022-12-03T07:20:38.899Z,12.20
2022-12-03T07:23:41.848Z,12.40
2022-12-03T07:26:44.377Z,11.73
2022-12-03T07:29:47.286Z,12.27
2022-12-03T07:32:50.311Z,11.57
2022-12-03T07:35:53.059Z,12.45
2022-12-03T07:38:55.571Z,13.75
2022-12-03T07:41:58.307Z,12.00
2022-12-03T07:45:01.418Z,11.38
2022-12-03T07:48:05.866Z,11.63
2022-12-03T07:51:11.579Z,10.82
2022-12-03T07:54:17.659Z,11.43
2022-12-03T07:57:20.323Z,11.38
2022-12-03T08:00:23.307Z,11.27
2022-12-03T08:03:26.125Z,11.50
2022-12-03T08:06:28.663Z,11.80
2022-12-03T08:09:31.943Z,12.07
2022-12-03T08:12:40.401Z,10.90
2022-12-03T08:15:44.068Z,11.52
2022-12-03T08:18:47.876Z,10.00
2022-12-03T08:21:50.645Z,10.75
2022-12-03T08:24:53.571Z,10.93
2022-12-03T08:28:20.697Z,10.95
2022-12-03T08:31:32.429Z,11.15
2022-12-03T08:34:40.508Z,12.03
2022-12-03T08:37:42.991Z,11.32
2022-12-03T08:40:47.214Z,12.00
2022-12-03T08:43:49.798Z,11.43
2022-12-03T08:47:12.990Z,11.40
2022-12-03T08:50:38.706Z,12.23
2022-12-03T08:53:48.541Z,11.60
2022-12-03T08:56:51.048Z,11.20
2022-12-03T08:59:59.157Z,11.23
2022-12-03T09:03:01.760Z,11.63
2022-12-03T09:06:05.043Z,10.73
2022-12-03T09:09:07.560Z,11.95
2022-12-03T09:12:11.057Z,11.10
2022-12-03T09:15:13.697Z,13.40
2022-12-03T09:18:16.543Z,11.07
2022-12-03T09:21:19.548Z,11.43
2022-12-03T09:24:22.472Z,11.50
2022-12-03T09:27:25.024Z,11.30
2022-12-03T09:30:28.011Z,12.30
2022-12-03T09:33:32.429Z,12.25
2022-12-03T09:36:35.323Z,11.03
2022-12-03T09:39:37.924Z,10.90
2022-12-03T09:42:41.335Z,12.37
2022-12-03T09:45:48.083Z,11.77
2022-12-03T09:48:51.153Z,12.35
2022-12-03T09:51:58.903Z,10.80
2022-12-03T09:55:07.850Z,10.43
2022-12-03T09:58:12.564Z,11.57
2022-12-03T10:01:16.282Z,11.55
2022-12-03T10:04:19.928Z,11.05
2022-12-03T10:07:23.374Z,10.47
2022-12-03T10:10:26.272Z,11.30
2022-12-03T10:13:30.421Z,10.65
2022-12-03T10:16:33.873Z,10.27
2022-12-03T10:19:37.594Z,11.60
2022-12-03T10:22:40.601Z,9.90
2022-12-03T10:25:56.595Z,10.93
2022-12-03T10:28:59.785Z,10.77
2022-12-03T10:32:07.593Z,10.63
2022-12-03T10:35:20.609Z,10.30
2022-12-03T10:38:23.705Z,10.27
2022-12-03T10:41:29.253Z,10.13
2022-12-03T10:44:31.822Z,9.88
2022-12-03T10:47:35.090Z,9.88
2022-12-03T10:50:38.442Z,10.23
2022-12-03T10:53:41.563Z,8.93
2022-12-03T10:56:44.896Z,9.35
2022-12-03T10:59:48.013Z,10.00
2022-12-03T11:02:56.715Z,9.55
2022-12-03T11:06:06.080Z,9.30
2022-12-03T11:09:18.403Z,8.80
2022-12-03T11:12:24.553Z,9.75
2022-12-03T11:15:42.477Z,8.98
2022-12-03T11:18:45.775Z,9.55
2022-12-03T11:22:03.499Z,10.20
2022-12-03T11:25:24.978Z,9.30
2022-12-03T11:28:27.661Z,9.65
2022-12-03T11:31:36.566Z,7.80
2022-12-03T11:34:40.773Z,9.10
2022-12-03T11:37:43.580Z,9.48
2022-12-03T11:41:16.167Z,9.27
2022-12-03T11:44:30.712Z,9.05
2022-12-03T11:47:38.668Z,9.30
2022-12-03T11:50:43.817Z,8.65
2022-12-03T11:53:46.659Z,8.85
2022-12-03T11:56:50.203Z,8.17
2022-12-03T12:00:05.463Z,8.48
2022-12-03T12:03:22.861Z,7.93
2022-12-03T12:06:26.084Z,9.38
2022-12-03T12:09:49.329Z,8.77
2022-12-03T12:12:55.079Z,8.20
2022-12-03T12:16:02.549Z,8.30
2022-12-03T12:19:27.398Z,7.35
2022-12-03T12:22:31.532Z,7.95
2022-12-03T12:25:35.405Z,7.78
2022-12-03T12:28:38.010Z,8.17
2022-12-03T12:31:41.016Z,8.43
2022-12-03T12:34:50.912Z,7.75
2022-12-03T12:38:00.176Z,7.87
2022-12-03T12:41:07.126Z,9.07
2022-12-03T12:44:10.656Z,9.60
2022-12-03T12:47:13.311Z,7.95
2022-12-03T12:50:18.104Z,7.87
2022-12-03T12:53:29.668Z,7.55
2022-12-03T12:56:33.461Z,7.60
2022-12-03T12:59:36.369Z,7.83
2022-12-03T13:02:44.479Z,7.47
2022-12-03T13:05:48.979Z,8.02
2022-12-03T13:08:52.429Z,7.80
2022-12-03T13:11:57.681Z,9.02
2022-12-03T13:15:00.965Z,7.37
2022-12-03T13:18:24.606Z,7.70
2022-12-03T13:21:41.542Z,7.85
2022-12-03T13:24:47.690Z,8.70
2022-12-03T13:27:50.664Z,8.90
2022-12-03T13:30:53.248Z,8.07
2022-12-03T13:33:57.065Z,8.27
2022-12-03T13:37:04.368Z,9.23
2022-12-03T13:40:36.184Z,8.43
2022-12-03T13:43:44.327Z,9.02
2022-12-03T13:46:47.668Z,9.20
2022-12-03T13:49:55.372Z,8.65
2022-12-03T13:53:03.742Z,8.13
2022-12-03T13:56:18.428Z,9.10
2022-12-03T13:59:25.954Z,8.93
2022-12-03T14:02:28.914Z,8.90
2022-12-03T14:05:31.700Z,7.93
2022-12-03T14:08:34.231Z,8.32
2022-12-03T14:11:56.190Z,8.88
2022-12-03T14:14:58.952Z,9.23
2022-12-03T14:18:02.449Z,7.87
2022-12-03T14:21:05.097Z,9.23
2022-12-03T14:24:08.386Z,8.50
2022-12-03T14:27:11.162Z,9.30
2022-12-03T14:30:14.773Z,8.60
2022-12-03T14:33:17.240Z,8.73
2022-12-03T14:36:20.013Z,9.80
2022-12-03T14:39:22.801Z,8.18
2022-12-03T14:42:25.941Z,8.75
2022-12-03T14:45:30.060Z,9.50
2022-12-03T14:48:32.953Z,9.17
2022-12-03T14:51:35.819Z,9.23
2022-12-03T14:54:45.094Z,8.73
2022-12-03T14:57:47.771Z,8.52
2022-12-03T15:00:50.806Z,8.88
2022-12-03T15:03:53.645Z,7.20
2022-12-03T15:06:56.530Z,8.13
2022-12-03T15:09:59.228Z,8.95
2022-12-03T15:13:02.407Z,8.82
2022-12-03T15:16:05.213Z,7.75
2022-12-03T15:19:08.237Z,7.97
2022-12-03T15:22:10.778Z,8.35
2022-12-03T15:25:13.654Z,8.80
2022-12-03T15:28:16.177Z,7.62
2022-12-03T15:31:19.266Z,8.63
2022-12-03T15:34:23.410Z,8.37
2022-12-03T15:37:28.212Z,8.88
2022-12-03T15:40:31.512Z,8.27
2022-12-03T15:43:34.922Z,8.57
2022-12-03T15:46:37.400Z,8.48
2022-12-03T15:49:40.473Z,7.53
2022-12-03T15:52:43.041Z,8.48
2022-12-03T15:55:46.058Z,7.87
2022-12-03T15:58:48.755Z,8.82
2022-12-03T16:01:51.820Z,8.98
2022-12-03T16:04:54.920Z,8.53
2022-12-03T16:07:57.567Z,9.23
2022-12-03T16:11:00.384Z,9.20
2022-12-03T16:14:03.106Z,10.57
2022-12-03T16:17:05.886Z,10.38
2022-12-03T16:20:08.967Z,10.17
2022-12-03T16:23:11.898Z,10.93
2022-12-03T16:26:14.415Z,10.85
2022-12-03T16:29:17.503Z,10.82
2022-12-03T16:32:20.095Z,11.88
2022-12-03T16:35:23.283Z,11.80
2022-12-03T16:38:25.779Z,10.82
2022-12-03T16:41:28.659Z,11.95
2022-12-03T16:44:32.979Z,12.02
2022-12-03T16:47:36.060Z,11.38
2022-12-03T16:50:38.768Z,12.13
2022-12-03T16:53:42.105Z,12.52
2022-12-03T16:56:44.868Z,12.43
2022-12-03T16:59:47.852Z,13.38
2022-12-03T17:02:50.521Z,13.10
2022-12-03T17:05:53.299Z,13.00
2022-12-03T17:08:56.090Z,12.60
2022-12-03T17:11:59.040Z,13.13
2022-12-03T17:15:01.731Z,13.57
2022-12-03T17:18:05.779Z,13.80
2022-12-03T17:21:08.393Z,12.90
2022-12-03T17:24:11.184Z,14.02
2022-12-03T17:27:15.684Z,12.73
2022-12-03T17:30:18.766Z,13.32
2022-12-03T17:33:21.301Z,14.13
2022-12-03T17:36:24.915Z,13.37
2022-12-03T17:39:27.573Z,14.55
2022-12-03T17:42:30.434Z,14.13
2022-12-03T17:45:32.919Z,13.85
2022-12-03T17:48:35.861Z,13.32
2022-12-03T17:51:39.377Z,13.30
2022-12-03T17:55:09.172Z,12.63
2022-12-03T17:58:05.197Z,12.65
2022-12-03T18:01:11.560Z,13.13
2022-12-03T18:04:14.593Z,13.95
2022-12-03T18:07:17.144Z,13.80
2022-12-03T18:10:20.154Z,14.13
2022-12-03T18:13:22.887Z,12.75
2022-12-03T18:16:26.001Z,12.82
2022-12-03T18:19:28.725Z,14.68
2022-12-03T18:22:31.608Z,12.87
2022-12-03T18:25:34.115Z,13.00
2022-12-03T18:28:37.216Z,12.60
2022-12-03T18:31:39.984Z,13.18
2022-12-03T18:34:42.974Z,13.95
2022-12-03T18:37:45.784Z,14.63
2022-12-03T18:40:50.476Z,13.45
2022-12-03T18:43:53.174Z,13.30
2022-12-03T18:46:57.686Z,11.43
2022-12-03T18:50:00.365Z,13.40
2022-12-03T18:53:05.183Z,13.67
2022-12-03T18:56:08.852Z,13.25
2022-12-03T18:59:12.295Z,13.43
2022-12-03T19:02:32.462Z,12.93
2022-12-03T19:05:40.415Z,12.60
2022-12-03T19:08:43.538Z,13.17
2022-12-03T19:11:46.871Z,12.45
2022-12-03T19:14:51.121Z,12.90
2022-12-03T19:17:54.505Z,12.10
2022-12-03T19:20:57.824Z,12.90
2022-12-03T19:24:23.892Z,12.20
2022-12-03T19:27:24.941Z,11.77
2022-12-03T19:30:28.277Z,13.77
2022-12-03T19:33:31.500Z,11.65
2022-12-03T19:36:34.644Z,11.98
2022-12-03T19:39:38.550Z,12.30
2022-12-03T19:42:45.032Z,12.27
2022-12-03T19:45:47.903Z,12.68
2022-12-03T19:48:51.154Z,11.25
2022-12-03T19:51:54.851Z,12.50
2022-12-03T19:54:58.147Z,12.20
2022-12-03T19:58:00.890Z,12.48
2022-12-03T20:01:07.707Z,12.57
2022-12-03T20:04:11.446Z,12.35
2022-12-03T20:07:13.974Z,12.73
2022-12-03T20:10:17.327Z,11.63
2022-12-03T20:13:20.088Z,12.45
2022-12-03T20:16:24.365Z,11.68
2022-12-03T20:19:28.175Z,12.15
2022-12-03T20:22:31.322Z,11.93
2022-12-03T20:25:36.680Z,11.80
2022-12-03T20:28:40.187Z,12.13
2022-12-03T20:31:43.024Z,12.00
2022-12-03T20:34:46.175Z,12.40
2022-12-03T20:37:48.664Z,12.88
2022-12-03T20:40:51.978Z,12.13
2022-12-03T20:43:54.864Z,12.00
2022-12-03T20:46:57.706Z,12.48
2022-12-03T20:50:01.037Z,13.65
2022-12-03T20:53:23.722Z,12.40
2022-12-03T20:56:36.082Z,12.93
2022-12-03T20:59:39.656Z,13.55
2022-12-03T21:02:43.006Z,14.32
2022-12-03T21:05:47.156Z,13.82
2022-12-03T21:08:52.728Z,13.40
2022-12-03T21:11:55.566Z,13.53
2022-12-03T21:14:58.079Z,14.45
2022-12-03T21:18:02.523Z,14.25
2022-12-03T21:21:05.642Z,15.55
2022-12-03T21:24:08.612Z,14.02
2022-12-03T21:27:11.137Z,13.17
2022-12-03T21:30:14.281Z,14.07
2022-12-03T21:33:16.751Z,14.32
2022-12-03T21:36:19.907Z,13.60
2022-12-03T21:39:23.040Z,12.73
2022-12-03T21:42:35.722Z,12.77
2022-12-03T21:45:40.611Z,12.27
2022-12-03T21:48:44.815Z,12.30
2022-12-03T21:51:47.456Z,12.63
2022-12-03T21:54:52.580Z,12.75
2022-12-03T21:57:55.027Z,14.50
2022-12-03T22:00:58.007Z,12.25
2022-12-03T22:04:01.057Z,13.32
2022-12-03T22:07:04.430Z,13.50
2022-12-03T22:10:09.405Z,13.30
2022-12-03T22:13:11.956Z,14.63
2022-12-03T22:16:17.973Z,14.57
2022-12-03T22:19:24.358Z,13.80
2022-12-03T22:22:27.649Z,13.73
2022-12-03T22:25:30.610Z,14.48
2022-12-03T22:28:34.387Z,13.13
2022-12-03T22:31:37.038Z,12.75
2022-12-03T22:34:41.630Z,13.82
2022-12-03T22:37:44.591Z,14.60
2022-12-03T22:40:47.938Z,16.25
2022-12-03T22:43:50.417Z,14.30
2022-12-03T22:46:53.364Z,16.05
2022-12-03T22:49:58.603Z,14.68
2022-12-03T22:53:01.740Z,15.23
2022-12-03T22:56:04.385Z,14.60
2022-12-03T22:59:07.466Z,15.77
2022-12-03T23:02:10.306Z,15.45
2022-12-03T23:05:13.124Z,15.93
2022-12-03T23:08:18.997Z,15.93
2022-12-03T23:11:22.773Z,15.15
2022-12-03T23:14:25.324Z,15.23
2022-12-03T23:17:28.864Z,16.05
2022-12-03T23:20:31.648Z,15.02
2022-12-03T23:23:34.513Z,15.13
2022-12-03T23:26:38.580Z,15.80
2022-12-03T23:29:41.490Z,15.97
2022-12-03T23:32:44.531Z,15.77
2022-12-03T23:35:47.546Z,15.68
2022-12-03T23:38:50.411Z,16.75
2022-12-03T23:41:53.295Z,16.85
2022-12-03T23:44:55.832Z,15.77
2022-12-03T23:47:58.659Z,16.40
2022-12-03T23:51:08.549Z,16.27
2022-12-03T23:54:12.218Z,15.27
2022-12-03T23:57:15.984Z,15.88
